sensor_id;sensor_type;location;lat;lon;timestamp;P1;durP1;ratioP1;P2;durP2;ratioP2
15385;SDS011;7791;47.246;9.648;2022-10-16T00:01:47;5.87;;;1.60;;
15385;SDS011;7791;47.246;9.648;2022-10-16T00:04:18;5.97;;;1.87;;
15385;SDS011;7791;47.246;9.648;2022-10-16T00:06:44;4.70;;;1.70;;
15385;SDS011;7791;47.246;9.648;2022-10-16T00:09:12;3.73;;;1.70;;
15385;SDS011;7791;47.246;9.648;2022-10-16T00:11:41;7.33;;;1.60;;
15385;SDS011;7791;47.246;9.648;2022-10-16T00:14:08;4.23;;;1.67;;
15385;SDS011;7791;47.246;9.648;2022-10-16T00:16:36;5.23;;;1.60;;
15385;SDS011;7791;47.246;9.648;2022-10-16T00:19:08;5.83;;;1.43;;
15385;SDS011;7791;47.246;9.648;2022-10-16T00:21:35;3.37;;;1.40;;
15385;SDS011;7791;47.246;9.648;2022-10-16T00:24:02;6.37;;;1.73;;
15385;SDS011;7791;47.246;9.648;2022-10-16T00:26:31;4.27;;;1.90;;
15385;SDS011;7791;47.246;9.648;2022-10-16T00:28:58;4.80;;;1.70;;
15385;SDS011;7791;47.246;9.648;2022-10-16T00:31:24;8.77;;;1.70;;
15385;SDS011;7791;47.246;9.648;2022-10-16T00:33:51;2.57;;;1.53;;
15385;SDS011;7791;47.246;9.648;2022-10-16T00:36:17;4.73;;;1.67;;
15385;SDS011;7791;47.246;9.648;2022-10-16T00:38:45;4.70;;;1.73;;
15385;SDS011;7791;47.246;9.648;2022-10-16T00:41:12;8.27;;;1.97;;
15385;SDS011;7791;47.246;9.648;2022-10-16T00:43:42;5.67;;;1.70;;
15385;SDS011;7791;47.246;9.648;2022-10-16T00:46:15;4.73;;;1.70;;
15385;SDS011;7791;47.246;9.648;2022-10-16T00:48:48;4.83;;;1.70;;
15385;SDS011;7791;47.246;9.648;2022-10-16T00:51:18;7.03;;;1.60;;
15385;SDS011;7791;47.246;9.648;2022-10-16T00:53:47;7.07;;;1.60;;
15385;SDS011;7791;47.246;9.648;2022-10-16T00:56:14;7.17;;;1.70;;
15385;SDS011;7791;47.246;9.648;2022-10-16T00:58:43;4.03;;;1.70;;
15385;SDS011;7791;47.246;9.648;2022-10-16T01:01:09;4.87;;;1.60;;
15385;SDS011;7791;47.246;9.648;2022-10-16T01:03:44;6.93;;;1.57;;
15385;SDS011;7791;47.246;9.648;2022-10-16T01:06:19;2.53;;;1.50;;
15385;SDS011;7791;47.246;9.648;2022-10-16T01:09:02;6.10;;;1.80;;
15385;SDS011;7791;47.246;9.648;2022-10-16T01:11:38;5.23;;;1.53;;
15385;SDS011;7791;47.246;9.648;2022-10-16T01:14:24;3.67;;;1.60;;
15385;SDS011;7791;47.246;9.648;2022-10-16T01:17:01;7.23;;;1.30;;
15385;SDS011;7791;47.246;9.648;2022-10-16T01:19:38;3.17;;;1.20;;
15385;SDS011;7791;47.246;9.648;2022-10-16T01:22:26;2.00;;;1.20;;
15385;SDS011;7791;47.246;9.648;2022-10-16T01:25:03;4.73;;;1.17;;
15385;SDS011;7791;47.246;9.648;2022-10-16T01:27:38;4.90;;;1.20;;
15385;SDS011;7791;47.246;9.648;2022-10-16T01:30:09;4.30;;;1.00;;
15385;SDS011;7791;47.246;9.648;2022-10-16T01:32:40;4.10;;;1.20;;
15385;SDS011;7791;47.246;9.648;2022-10-16T01:35:09;4.80;;;1.17;;
15385;SDS011;7791;47.246;9.648;2022-10-16T01:37:40;3.40;;;1.33;;
15385;SDS011;7791;47.246;9.648;2022-10-16T01:40:11;7.13;;;1.20;;
15385;SDS011;7791;47.246;9.648;2022-10-16T01:42:41;1.60;;;1.00;;
15385;SDS011;7791;47.246;9.648;2022-10-16T01:45:09;5.70;;;1.60;;
15385;SDS011;7791;47.246;9.648;2022-10-16T01:47:39;2.47;;;0.80;;
15385;SDS011;7791;47.246;9.648;2022-10-16T01:50:05;1.63;;;0.77;;
15385;SDS011;7791;47.246;9.648;2022-10-16T01:52:43;3.80;;;1.00;;
15385;SDS011;7791;47.246;9.648;2022-10-16T01:55:12;3.73;;;0.90;;
15385;SDS011;7791;47.246;9.648;2022-10-16T01:57:44;5.17;;;1.00;;
15385;SDS011;7791;47.246;9.648;2022-10-16T02:00:14;5.83;;;1.33;;
15385;SDS011;7791;47.246;9.648;2022-10-16T02:02:46;2.47;;;1.17;;
15385;SDS011;7791;47.246;9.648;2022-10-16T02:05:21;4.57;;;1.20;;
15385;SDS011;7791;47.246;9.648;2022-10-16T02:07:53;5.17;;;1.30;;
15385;SDS011;7791;47.246;9.648;2022-10-16T02:10:20;1.50;;;1.00;;
15385;SDS011;7791;47.246;9.648;2022-10-16T02:12:48;3.40;;;1.23;;
15385;SDS011;7791;47.246;9.648;2022-10-16T02:15:18;1.57;;;0.80;;
15385;SDS011;7791;47.246;9.648;2022-10-16T02:17:44;4.53;;;0.93;;
15385;SDS011;7791;47.246;9.648;2022-10-16T02:20:11;2.83;;;0.87;;
15385;SDS011;7791;47.246;9.648;2022-10-16T02:22:38;2.37;;;1.00;;
15385;SDS011;7791;47.246;9.648;2022-10-16T02:25:08;3.13;;;1.10;;
15385;SDS011;7791;47.246;9.648;2022-10-16T02:27:38;3.23;;;1.00;;
15385;SDS011;7791;47.246;9.648;2022-10-16T02:30:12;9.90;;;1.20;;
15385;SDS011;7791;47.246;9.648;2022-10-16T02:32:52;1.20;;;1.00;;
15385;SDS011;7791;47.246;9.648;2022-10-16T02:35:20;2.70;;;1.07;;
15385;SDS011;7791;47.246;9.648;2022-10-16T02:37:48;7.10;;;1.20;;
15385;SDS011;7791;47.246;9.648;2022-10-16T02:40:17;2.77;;;1.03;;
15385;SDS011;7791;47.246;9.648;2022-10-16T02:42:49;3.20;;;0.90;;
15385;SDS011;7791;47.246;9.648;2022-10-16T02:45:18;6.63;;;1.10;;
15385;SDS011;7791;47.246;9.648;2022-10-16T02:47:45;3.60;;;1.20;;
15385;SDS011;7791;47.246;9.648;2022-10-16T02:50:12;4.67;;;0.97;;
15385;SDS011;7791;47.246;9.648;2022-10-16T02:52:39;4.63;;;0.90;;
15385;SDS011;7791;47.246;9.648;2022-10-16T02:55:19;3.27;;;1.10;;
15385;SDS011;7791;47.246;9.648;2022-10-16T02:57:45;3.67;;;1.27;;
15385;SDS011;7791;47.246;9.648;2022-10-16T03:00:12;2.20;;;1.10;;
15385;SDS011;7791;47.246;9.648;2022-10-16T03:02:41;5.93;;;1.00;;
15385;SDS011;7791;47.246;9.648;2022-10-16T03:05:08;5.40;;;1.30;;
15385;SDS011;7791;47.246;9.648;2022-10-16T03:07:35;6.73;;;1.17;;
15385;SDS011;7791;47.246;9.648;2022-10-16T03:12:52;3.67;;;1.37;;
15385;SDS011;7791;47.246;9.648;2022-10-16T03:15:18;4.90;;;1.10;;
15385;SDS011;7791;47.246;9.648;2022-10-16T03:17:45;2.77;;;1.20;;
15385;SDS011;7791;47.246;9.648;2022-10-16T03:20:12;3.20;;;1.23;;
15385;SDS011;7791;47.246;9.648;2022-10-16T03:22:38;1.80;;;1.37;;
15385;SDS011;7791;47.246;9.648;2022-10-16T03:25:06;3.97;;;1.00;;
15385;SDS011;7791;47.246;9.648;2022-10-16T03:27:33;4.57;;;1.20;;
15385;SDS011;7791;47.246;9.648;2022-10-16T03:29:59;1.87;;;1.00;;
15385;SDS011;7791;47.246;9.648;2022-10-16T03:32:25;5.10;;;1.30;;
15385;SDS011;7791;47.246;9.648;2022-10-16T03:34:52;6.47;;;1.03;;
15385;SDS011;7791;47.246;9.648;2022-10-16T03:37:18;1.47;;;1.07;;
15385;SDS011;7791;47.246;9.648;2022-10-16T03:39:46;1.60;;;1.20;;
15385;SDS011;7791;47.246;9.648;2022-10-16T03:42:12;2.17;;;1.03;;
15385;SDS011;7791;47.246;9.648;2022-10-16T03:44:38;3.73;;;1.10;;
15385;SDS011;7791;47.246;9.648;2022-10-16T03:47:07;3.40;;;1.00;;
15385;SDS011;7791;47.246;9.648;2022-10-16T03:49:36;3.87;;;1.10;;
15385;SDS011;7791;47.246;9.648;2022-10-16T03:52:04;1.23;;;0.93;;
15385;SDS011;7791;47.246;9.648;2022-10-16T03:54:32;5.93;;;0.90;;
15385;SDS011;7791;47.246;9.648;2022-10-16T03:57:13;6.67;;;0.90;;
15385;SDS011;7791;47.246;9.648;2022-10-16T03:59:39;3.93;;;1.40;;
15385;SDS011;7791;47.246;9.648;2022-10-16T04:02:05;2.10;;;0.87;;
15385;SDS011;7791;47.246;9.648;2022-10-16T04:04:31;3.23;;;1.00;;
15385;SDS011;7791;47.246;9.648;2022-10-16T04:06:58;3.83;;;0.90;;
15385;SDS011;7791;47.246;9.648;2022-10-16T04:09:26;7.53;;;0.93;;
15385;SDS011;7791;47.246;9.648;2022-10-16T04:11:57;2.77;;;1.07;;
15385;SDS011;7791;47.246;9.648;2022-10-16T04:14:23;2.17;;;1.20;;
15385;SDS011;7791;47.246;9.648;2022-10-16T04:16:49;4.63;;;1.00;;
15385;SDS011;7791;47.246;9.648;2022-10-16T04:19:15;3.33;;;1.10;;
15385;SDS011;7791;47.246;9.648;2022-10-16T04:21:42;3.67;;;1.20;;
15385;SDS011;7791;47.246;9.648;2022-10-16T04:24:08;4.13;;;1.00;;
15385;SDS011;7791;47.246;9.648;2022-10-16T04:29:27;4.13;;;1.10;;
15385;SDS011;7791;47.246;9.648;2022-10-16T04:31:53;2.63;;;1.03;;
15385;SDS011;7791;47.246;9.648;2022-10-16T04:34:19;2.97;;;0.97;;
15385;SDS011;7791;47.246;9.648;2022-10-16T04:36:47;2.10;;;1.10;;
15385;SDS011;7791;47.246;9.648;2022-10-16T04:39:16;5.53;;;1.13;;
15385;SDS011;7791;47.246;9.648;2022-10-16T04:44:41;3.70;;;1.30;;
15385;SDS011;7791;47.246;9.648;2022-10-16T04:47:08;4.17;;;1.30;;
15385;SDS011;7791;47.246;9.648;2022-10-16T04:49:34;4.40;;;1.30;;
15385;SDS011;7791;47.246;9.648;2022-10-16T04:51:59;4.77;;;1.40;;
15385;SDS011;7791;47.246;9.648;2022-10-16T04:54:25;5.20;;;1.30;;
15385;SDS011;7791;47.246;9.648;2022-10-16T04:57:01;7.93;;;1.50;;
15385;SDS011;7791;47.246;9.648;2022-10-16T04:59:34;3.73;;;2.00;;
15385;SDS011;7791;47.246;9.648;2022-10-16T05:02:03;12.83;;;2.87;;
15385;SDS011;7791;47.246;9.648;2022-10-16T05:04:32;4.67;;;2.80;;
15385;SDS011;7791;47.246;9.648;2022-10-16T05:07:02;5.30;;;2.50;;
15385;SDS011;7791;47.246;9.648;2022-10-16T05:09:28;4.10;;;2.20;;
15385;SDS011;7791;47.246;9.648;2022-10-16T05:11:57;3.83;;;2.60;;
15385;SDS011;7791;47.246;9.648;2022-10-16T05:14:23;4.47;;;2.03;;
15385;SDS011;7791;47.246;9.648;2022-10-16T05:16:50;7.57;;;2.10;;
15385;SDS011;7791;47.246;9.648;2022-10-16T05:19:16;16.87;;;2.27;;
15385;SDS011;7791;47.246;9.648;2022-10-16T05:21:42;4.40;;;2.20;;
15385;SDS011;7791;47.246;9.648;2022-10-16T05:24:09;6.60;;;2.30;;
15385;SDS011;7791;47.246;9.648;2022-10-16T05:26:35;4.37;;;2.20;;
15385;SDS011;7791;47.246;9.648;2022-10-16T05:29:03;8.90;;;2.47;;
15385;SDS011;7791;47.246;9.648;2022-10-16T05:31:34;7.50;;;2.40;;
15385;SDS011;7791;47.246;9.648;2022-10-16T05:34:02;7.50;;;2.27;;
15385;SDS011;7791;47.246;9.648;2022-10-16T05:36:28;7.43;;;2.43;;
15385;SDS011;7791;47.246;9.648;2022-10-16T05:38:54;4.53;;;2.30;;
15385;SDS011;7791;47.246;9.648;2022-10-16T05:41:21;7.60;;;3.27;;
15385;SDS011;7791;47.246;9.648;2022-10-16T05:43:47;4.90;;;2.80;;
15385;SDS011;7791;47.246;9.648;2022-10-16T05:46:15;5.87;;;2.10;;
15385;SDS011;7791;47.246;9.648;2022-10-16T05:48:41;3.27;;;1.80;;
15385;SDS011;7791;47.246;9.648;2022-10-16T05:51:10;5.87;;;1.93;;
15385;SDS011;7791;47.246;9.648;2022-10-16T05:53:38;4.63;;;1.83;;
15385;SDS011;7791;47.246;9.648;2022-10-16T05:56:05;8.23;;;1.90;;
15385;SDS011;7791;47.246;9.648;2022-10-16T05:58:33;8.57;;;2.10;;
15385;SDS011;7791;47.246;9.648;2022-10-16T06:01:01;15.40;;;7.47;;
15385;SDS011;7791;47.246;9.648;2022-10-16T06:03:30;6.27;;;3.07;;
15385;SDS011;7791;47.246;9.648;2022-10-16T06:05:56;13.57;;;3.50;;
15385;SDS011;7791;47.246;9.648;2022-10-16T06:08:24;7.30;;;2.60;;
15385;SDS011;7791;47.246;9.648;2022-10-16T06:10:59;5.13;;;2.90;;
15385;SDS011;7791;47.246;9.648;2022-10-16T06:13:30;7.07;;;2.70;;
15385;SDS011;7791;47.246;9.648;2022-10-16T06:15:57;4.23;;;1.93;;
15385;SDS011;7791;47.246;9.648;2022-10-16T06:18:25;5.73;;;2.30;;
15385;SDS011;7791;47.246;9.648;2022-10-16T06:20:51;13.07;;;3.10;;
15385;SDS011;7791;47.246;9.648;2022-10-16T06:23:17;9.13;;;2.37;;
15385;SDS011;7791;47.246;9.648;2022-10-16T06:25:45;4.53;;;2.10;;
15385;SDS011;7791;47.246;9.648;2022-10-16T06:28:14;7.97;;;2.60;;
15385;SDS011;7791;47.246;9.648;2022-10-16T06:30:41;6.70;;;2.57;;
15385;SDS011;7791;47.246;9.648;2022-10-16T06:33:08;5.20;;;2.43;;
15385;SDS011;7791;47.246;9.648;2022-10-16T06:35:40;5.10;;;2.60;;
15385;SDS011;7791;47.246;9.648;2022-10-16T06:38:07;5.80;;;2.73;;
15385;SDS011;7791;47.246;9.648;2022-10-16T06:40:33;13.67;;;3.53;;
15385;SDS011;7791;47.246;9.648;2022-10-16T06:43:01;7.77;;;3.53;;
15385;SDS011;7791;47.246;9.648;2022-10-16T06:45:27;5.30;;;3.00;;
15385;SDS011;7791;47.246;9.648;2022-10-16T06:47:53;4.30;;;2.30;;
15385;SDS011;7791;47.246;9.648;2022-10-16T06:50:22;4.77;;;1.60;;
15385;SDS011;7791;47.246;9.648;2022-10-16T06:52:50;17.43;;;9.60;;
15385;SDS011;7791;47.246;9.648;2022-10-16T06:55:19;5.73;;;3.17;;
15385;SDS011;7791;47.246;9.648;2022-10-16T06:57:47;7.73;;;2.87;;
15385;SDS011;7791;47.246;9.648;2022-10-16T07:00:19;12.73;;;6.10;;
15385;SDS011;7791;47.246;9.648;2022-10-16T07:02:49;11.00;;;4.97;;
15385;SDS011;7791;47.246;9.648;2022-10-16T07:05:19;3.23;;;1.60;;
15385;SDS011;7791;47.246;9.648;2022-10-16T07:07:50;4.13;;;0.90;;
15385;SDS011;7791;47.246;9.648;2022-10-16T07:10:16;2.53;;;1.10;;
15385;SDS011;7791;47.246;9.648;2022-10-16T07:12:44;1.43;;;0.80;;
15385;SDS011;7791;47.246;9.648;2022-10-16T07:15:11;2.57;;;0.90;;
15385;SDS011;7791;47.246;9.648;2022-10-16T07:17:38;2.30;;;0.80;;
15385;SDS011;7791;47.246;9.648;2022-10-16T07:20:05;11.03;;;1.00;;
15385;SDS011;7791;47.246;9.648;2022-10-16T07:22:31;5.40;;;1.10;;
15385;SDS011;7791;47.246;9.648;2022-10-16T07:24:57;1.73;;;1.00;;
15385;SDS011;7791;47.246;9.648;2022-10-16T07:27:28;6.13;;;1.20;;
15385;SDS011;7791;47.246;9.648;2022-10-16T07:30:03;2.97;;;1.17;;
15385;SDS011;7791;47.246;9.648;2022-10-16T07:32:31;2.03;;;1.10;;
15385;SDS011;7791;47.246;9.648;2022-10-16T07:34:58;1.70;;;1.10;;
15385;SDS011;7791;47.246;9.648;2022-10-16T07:37:26;3.37;;;0.80;;
15385;SDS011;7791;47.246;9.648;2022-10-16T07:39:53;4.87;;;1.40;;
15385;SDS011;7791;47.246;9.648;2022-10-16T07:42:19;4.47;;;1.10;;
15385;SDS011;7791;47.246;9.648;2022-10-16T07:44:45;9.90;;;1.30;;
15385;SDS011;7791;47.246;9.648;2022-10-16T07:47:13;7.53;;;1.30;;
15385;SDS011;7791;47.246;9.648;2022-10-16T07:49:40;1.53;;;1.20;;
15385;SDS011;7791;47.246;9.648;2022-10-16T07:52:08;3.27;;;1.40;;
15385;SDS011;7791;47.246;9.648;2022-10-16T07:54:34;7.57;;;1.27;;
15385;SDS011;7791;47.246;9.648;2022-10-16T07:57:01;3.08;;;1.10;;
15385;SDS011;7791;47.246;9.648;2022-10-16T07:59:27;3.40;;;1.25;;
15385;SDS011;7791;47.246;9.648;2022-10-16T08:01:54;3.95;;;1.05;;
15385;SDS011;7791;47.246;9.648;2022-10-16T08:04:19;3.03;;;1.10;;
15385;SDS011;7791;47.246;9.648;2022-10-16T08:06:46;10.80;;;1.67;;
15385;SDS011;7791;47.246;9.648;2022-10-16T08:09:13;4.63;;;1.70;;
15385;SDS011;7791;47.246;9.648;2022-10-16T08:11:39;8.00;;;1.97;;
15385;SDS011;7791;47.246;9.648;2022-10-16T08:14:11;7.40;;;1.80;;
15385;SDS011;7791;47.246;9.648;2022-10-16T08:25:40;2.60;;;1.50;;
15385;SDS011;7791;47.246;9.648;2022-10-16T08:28:06;5.77;;;1.30;;
15385;SDS011;7791;47.246;9.648;2022-10-16T08:30:34;3.00;;;1.60;;
15385;SDS011;7791;47.246;9.648;2022-10-16T08:33:01;3.05;;;1.52;;
15385;SDS011;7791;47.246;9.648;2022-10-16T08:35:28;3.78;;;1.38;;
15385;SDS011;7791;47.246;9.648;2022-10-16T08:37:58;10.13;;;1.45;;
15385;SDS011;7791;47.246;9.648;2022-10-16T08:40:25;2.08;;;1.30;;
15385;SDS011;7791;47.246;9.648;2022-10-16T08:43:00;3.85;;;1.13;;
15385;SDS011;7791;47.246;9.648;2022-10-16T08:46:01;4.63;;;1.50;;
15385;SDS011;7791;47.246;9.648;2022-10-16T08:51:37;5.90;;;1.58;;
15385;SDS011;7791;47.246;9.648;2022-10-16T08:54:12;5.28;;;1.27;;
15385;SDS011;7791;47.246;9.648;2022-10-16T08:56:48;3.80;;;1.20;;
15385;SDS011;7791;47.246;9.648;2022-10-16T08:59:15;4.53;;;1.10;;
15385;SDS011;7791;47.246;9.648;2022-10-16T09:01:44;3.40;;;1.33;;
15385;SDS011;7791;47.246;9.648;2022-10-16T09:07:10;3.30;;;1.30;;
15385;SDS011;7791;47.246;9.648;2022-10-16T09:09:56;3.25;;;1.10;;
15385;SDS011;7791;47.246;9.648;2022-10-16T09:12:32;2.10;;;1.23;;
15385;SDS011;7791;47.246;9.648;2022-10-16T09:15:17;3.85;;;1.13;;
15385;SDS011;7791;47.246;9.648;2022-10-16T09:17:52;2.95;;;1.20;;
15385;SDS011;7791;47.246;9.648;2022-10-16T09:26:30;4.00;;;1.30;;
15385;SDS011;7791;47.246;9.648;2022-10-16T09:28:57;5.50;;;1.20;;
15385;SDS011;7791;47.246;9.648;2022-10-16T09:31:24;6.20;;;1.10;;
15385;SDS011;7791;47.246;9.648;2022-10-16T09:33:51;4.38;;;1.10;;
15385;SDS011;7791;47.246;9.648;2022-10-16T09:39:19;3.72;;;0.95;;
15385;SDS011;7791;47.246;9.648;2022-10-16T09:41:47;7.88;;;1.02;;
15385;SDS011;7791;47.246;9.648;2022-10-16T09:44:17;3.10;;;1.13;;
15385;SDS011;7791;47.246;9.648;2022-10-16T09:46:47;2.97;;;0.88;;
15385;SDS011;7791;47.246;9.648;2022-10-16T09:49:18;5.57;;;1.30;;
15385;SDS011;7791;47.246;9.648;2022-10-16T09:54:55;3.92;;;0.98;;
15385;SDS011;7791;47.246;9.648;2022-10-16T09:57:24;4.18;;;1.00;;
15385;SDS011;7791;47.246;9.648;2022-10-16T09:59:52;4.28;;;1.00;;
15385;SDS011;7791;47.246;9.648;2022-10-16T10:02:26;3.53;;;1.00;;
15385;SDS011;7791;47.246;9.648;2022-10-16T10:04:57;3.05;;;0.95;;
15385;SDS011;7791;47.246;9.648;2022-10-16T10:10:28;4.03;;;1.05;;
15385;SDS011;7791;47.246;9.648;2022-10-16T10:13:14;2.05;;;0.93;;
15385;SDS011;7791;47.246;9.648;2022-10-16T10:15:43;1.80;;;1.20;;
15385;SDS011;7791;47.246;9.648;2022-10-16T10:18:18;3.13;;;1.00;;
15385;SDS011;7791;47.246;9.648;2022-10-16T10:21:03;6.85;;;1.30;;
15385;SDS011;7791;47.246;9.648;2022-10-16T10:23:31;1.30;;;0.90;;
15385;SDS011;7791;47.246;9.648;2022-10-16T10:25:57;2.63;;;1.00;;
15385;SDS011;7791;47.246;9.648;2022-10-16T10:28:42;2.88;;;0.85;;
15385;SDS011;7791;47.246;9.648;2022-10-16T10:31:20;2.22;;;0.82;;
15385;SDS011;7791;47.246;9.648;2022-10-16T10:33:54;2.65;;;0.90;;
15385;SDS011;7791;47.246;9.648;2022-10-16T10:42:30;2.75;;;0.88;;
15385;SDS011;7791;47.246;9.648;2022-10-16T10:45:11;2.45;;;0.88;;
15385;SDS011;7791;47.246;9.648;2022-10-16T10:47:56;8.85;;;1.10;;
15385;SDS011;7791;47.246;9.648;2022-10-16T10:50:39;5.65;;;1.05;;
15385;SDS011;7791;47.246;9.648;2022-10-16T10:59:26;1.73;;;0.80;;
15385;SDS011;7791;47.246;9.648;2022-10-16T11:02:15;0.90;;;0.70;;
15385;SDS011;7791;47.246;9.648;2022-10-16T11:04:54;1.40;;;0.90;;
15385;SDS011;7791;47.246;9.648;2022-10-16T11:10:50;2.55;;;0.80;;
15385;SDS011;7791;47.246;9.648;2022-10-16T11:13:27;5.55;;;0.90;;
15385;SDS011;7791;47.246;9.648;2022-10-16T11:15:58;0.82;;;0.82;;
15385;SDS011;7791;47.246;9.648;2022-10-16T11:18:30;6.60;;;0.98;;
15385;SDS011;7791;47.246;9.648;2022-10-16T11:21:10;2.67;;;0.80;;
15385;SDS011;7791;47.246;9.648;2022-10-16T11:23:40;1.58;;;0.88;;
15385;SDS011;7791;47.246;9.648;2022-10-16T11:26:14;5.07;;;0.80;;
15385;SDS011;7791;47.246;9.648;2022-10-16T11:28:45;4.60;;;0.80;;
15385;SDS011;7791;47.246;9.648;2022-10-16T11:31:14;0.90;;;0.80;;
15385;SDS011;7791;47.246;9.648;2022-10-16T11:33:45;4.30;;;1.17;;
15385;SDS011;7791;47.246;9.648;2022-10-16T11:36:16;7.47;;;1.20;;
15385;SDS011;7791;47.246;9.648;2022-10-16T11:42:01;1.67;;;1.20;;
15385;SDS011;7791;47.246;9.648;2022-10-16T11:44:44;2.10;;;1.20;;
15385;SDS011;7791;47.246;9.648;2022-10-16T11:47:24;1.90;;;1.33;;
15385;SDS011;7791;47.246;9.648;2022-10-16T11:49:57;3.63;;;1.10;;
15385;SDS011;7791;47.246;9.648;2022-10-16T11:52:28;4.50;;;1.30;;
15385;SDS011;7791;47.246;9.648;2022-10-16T12:10:21;1.38;;;1.00;;
15385;SDS011;7791;47.246;9.648;2022-10-16T12:12:49;3.28;;;1.27;;
15385;SDS011;7791;47.246;9.648;2022-10-16T12:15:21;2.72;;;1.10;;
15385;SDS011;7791;47.246;9.648;2022-10-16T12:17:49;2.22;;;0.82;;
15385;SDS011;7791;47.246;9.648;2022-10-16T12:20:25;1.10;;;1.00;;
15385;SDS011;7791;47.246;9.648;2022-10-16T12:22:55;2.83;;;1.05;;
15385;SDS011;7791;47.246;9.648;2022-10-16T12:31:16;1.13;;;0.82;;
15385;SDS011;7791;47.246;9.648;2022-10-16T12:33:51;2.33;;;1.27;;
15385;SDS011;7791;47.246;9.648;2022-10-16T12:36:26;1.58;;;1.27;;
15385;SDS011;7791;47.246;9.648;2022-10-16T12:38:54;4.13;;;1.30;;
15385;SDS011;7791;47.246;9.648;2022-10-16T12:41:35;1.52;;;1.00;;
15385;SDS011;7791;47.246;9.648;2022-10-16T12:44:03;1.73;;;1.13;;
15385;SDS011;7791;47.246;9.648;2022-10-16T12:46:37;1.27;;;1.10;;
15385;SDS011;7791;47.246;9.648;2022-10-16T12:49:05;4.07;;;1.30;;
15385;SDS011;7791;47.246;9.648;2022-10-16T12:51:56;2.72;;;1.20;;
15385;SDS011;7791;47.246;9.648;2022-10-16T12:54:25;3.47;;;1.17;;
15385;SDS011;7791;47.246;9.648;2022-10-16T12:57:10;1.60;;;1.30;;
15385;SDS011;7791;47.246;9.648;2022-10-16T12:59:59;2.60;;;1.30;;
15385;SDS011;7791;47.246;9.648;2022-10-16T13:02:41;4.10;;;1.48;;
15385;SDS011;7791;47.246;9.648;2022-10-16T13:05:25;1.70;;;1.40;;
15385;SDS011;7791;47.246;9.648;2022-10-16T13:08:04;1.52;;;1.20;;
15385;SDS011;7791;47.246;9.648;2022-10-16T13:10:51;2.95;;;1.30;;
15385;SDS011;7791;47.246;9.648;2022-10-16T13:13:42;4.47;;;1.20;;
15385;SDS011;7791;47.246;9.648;2022-10-16T13:16:38;2.38;;;1.30;;
15385;SDS011;7791;47.246;9.648;2022-10-16T13:19:17;3.85;;;1.40;;
15385;SDS011;7791;47.246;9.648;2022-10-16T13:21:52;5.63;;;1.70;;
15385;SDS011;7791;47.246;9.648;2022-10-16T13:24:27;3.95;;;1.60;;
15385;SDS011;7791;47.246;9.648;2022-10-16T13:27:07;3.83;;;1.60;;
15385;SDS011;7791;47.246;9.648;2022-10-16T13:29:40;1.65;;;1.20;;
15385;SDS011;7791;47.246;9.648;2022-10-16T13:32:09;2.40;;;1.67;;
15385;SDS011;7791;47.246;9.648;2022-10-16T13:34:41;6.22;;;1.55;;
15385;SDS011;7791;47.246;9.648;2022-10-16T13:37:15;3.50;;;1.48;;
15385;SDS011;7791;47.246;9.648;2022-10-16T13:39:44;2.35;;;1.30;;
15385;SDS011;7791;47.246;9.648;2022-10-16T13:48:17;1.67;;;1.48;;
15385;SDS011;7791;47.246;9.648;2022-10-16T13:50:44;1.98;;;1.40;;
15385;SDS011;7791;47.246;9.648;2022-10-16T13:53:12;5.95;;;1.50;;
15385;SDS011;7791;47.246;9.648;2022-10-16T13:55:40;2.38;;;1.40;;
15385;SDS011;7791;47.246;9.648;2022-10-16T13:58:07;4.68;;;1.70;;
15385;SDS011;7791;47.246;9.648;2022-10-16T14:00:37;5.88;;;1.75;;
15385;SDS011;7791;47.246;9.648;2022-10-16T14:03:05;7.57;;;1.50;;
15385;SDS011;7791;47.246;9.648;2022-10-16T14:05:41;4.43;;;1.38;;
15385;SDS011;7791;47.246;9.648;2022-10-16T14:08:12;3.30;;;1.42;;
15385;SDS011;7791;47.246;9.648;2022-10-16T14:10:39;8.02;;;1.50;;
15385;SDS011;7791;47.246;9.648;2022-10-16T14:13:18;4.28;;;1.60;;
15385;SDS011;7791;47.246;9.648;2022-10-16T14:15:47;5.18;;;1.35;;
15385;SDS011;7791;47.246;9.648;2022-10-16T14:18:17;7.32;;;1.55;;
15385;SDS011;7791;47.246;9.648;2022-10-16T14:20:46;6.07;;;1.45;;
15385;SDS011;7791;47.246;9.648;2022-10-16T14:23:21;5.18;;;1.35;;
15385;SDS011;7791;47.246;9.648;2022-10-16T14:25:48;4.35;;;1.63;;
15385;SDS011;7791;47.246;9.648;2022-10-16T14:28:15;5.72;;;1.50;;
15385;SDS011;7791;47.246;9.648;2022-10-16T14:30:56;3.72;;;1.40;;
15385;SDS011;7791;47.246;9.648;2022-10-16T14:33:31;7.25;;;1.52;;
15385;SDS011;7791;47.246;9.648;2022-10-16T14:36:04;2.17;;;1.30;;
15385;SDS011;7791;47.246;9.648;2022-10-16T14:38:36;5.85;;;1.60;;
15385;SDS011;7791;47.246;9.648;2022-10-16T14:41:05;7.57;;;1.40;;
15385;SDS011;7791;47.246;9.648;2022-10-16T14:43:32;5.20;;;1.50;;
15385;SDS011;7791;47.246;9.648;2022-10-16T14:46:15;10.70;;;1.70;;
15385;SDS011;7791;47.246;9.648;2022-10-16T14:48:43;9.57;;;1.58;;
15385;SDS011;7791;47.246;9.648;2022-10-16T14:51:13;8.43;;;1.90;;
15385;SDS011;7791;47.246;9.648;2022-10-16T14:53:40;6.25;;;1.40;;
15385;SDS011;7791;47.246;9.648;2022-10-16T14:56:14;10.82;;;1.60;;
15385;SDS011;7791;47.246;9.648;2022-10-16T14:58:43;8.70;;;1.60;;
15385;SDS011;7791;47.246;9.648;2022-10-16T15:01:09;8.23;;;1.52;;
15385;SDS011;7791;47.246;9.648;2022-10-16T15:03:36;12.18;;;1.42;;
15385;SDS011;7791;47.246;9.648;2022-10-16T15:06:03;8.35;;;1.40;;
15385;SDS011;7791;47.246;9.648;2022-10-16T15:08:40;10.77;;;1.70;;
15385;SDS011;7791;47.246;9.648;2022-10-16T15:11:07;9.68;;;1.83;;
15385;SDS011;7791;47.246;9.648;2022-10-16T15:13:38;11.52;;;1.63;;
15385;SDS011;7791;47.246;9.648;2022-10-16T15:16:10;7.65;;;1.60;;
15385;SDS011;7791;47.246;9.648;2022-10-16T15:18:51;8.38;;;1.27;;
15385;SDS011;7791;47.246;9.648;2022-10-16T15:21:20;3.23;;;1.50;;
15385;SDS011;7791;47.246;9.648;2022-10-16T15:23:51;16.27;;;6.27;;
15385;SDS011;7791;47.246;9.648;2022-10-16T15:26:17;32.00;;;15.10;;
15385;SDS011;7791;47.246;9.648;2022-10-16T15:28:44;30.50;;;12.53;;
15385;SDS011;7791;47.246;9.648;2022-10-16T15:31:11;16.47;;;5.30;;
15385;SDS011;7791;47.246;9.648;2022-10-16T15:33:40;26.00;;;3.47;;
15385;SDS011;7791;47.246;9.648;2022-10-16T15:36:05;10.50;;;1.67;;
15385;SDS011;7791;47.246;9.648;2022-10-16T15:38:32;7.90;;;1.77;;
15385;SDS011;7791;47.246;9.648;2022-10-16T15:41:00;11.70;;;2.20;;
15385;SDS011;7791;47.246;9.648;2022-10-16T15:43:32;9.37;;;1.80;;
15385;SDS011;7791;47.246;9.648;2022-10-16T15:45:59;18.80;;;2.93;;
15385;SDS011;7791;47.246;9.648;2022-10-16T15:48:30;9.23;;;1.83;;
15385;SDS011;7791;47.246;9.648;2022-10-16T15:50:57;8.33;;;1.93;;
15385;SDS011;7791;47.246;9.648;2022-10-16T15:53:24;5.97;;;1.60;;
15385;SDS011;7791;47.246;9.648;2022-10-16T15:55:53;14.00;;;3.50;;
15385;SDS011;7791;47.246;9.648;2022-10-16T15:58:21;20.03;;;2.50;;
15385;SDS011;7791;47.246;9.648;2022-10-16T16:00:54;19.10;;;2.57;;
15385;SDS011;7791;47.246;9.648;2022-10-16T16:03:25;18.90;;;2.70;;
15385;SDS011;7791;47.246;9.648;2022-10-16T16:08:58;7.60;;;2.30;;
15385;SDS011;7791;47.246;9.648;2022-10-16T16:11:28;12.50;;;1.67;;
15385;SDS011;7791;47.246;9.648;2022-10-16T16:13:58;12.43;;;2.00;;
15385;SDS011;7791;47.246;9.648;2022-10-16T16:16:25;10.23;;;2.10;;
15385;SDS011;7791;47.246;9.648;2022-10-16T16:18:52;14.33;;;2.13;;
15385;SDS011;7791;47.246;9.648;2022-10-16T16:21:22;12.50;;;2.90;;
15385;SDS011;7791;47.246;9.648;2022-10-16T16:23:53;13.23;;;5.60;;
15385;SDS011;7791;47.246;9.648;2022-10-16T16:26:24;8.80;;;4.13;;
15385;SDS011;7791;47.246;9.648;2022-10-16T16:28:50;8.00;;;2.73;;
15385;SDS011;7791;47.246;9.648;2022-10-16T16:31:18;9.63;;;2.33;;
15385;SDS011;7791;47.246;9.648;2022-10-16T16:33:45;7.63;;;2.60;;
15385;SDS011;7791;47.246;9.648;2022-10-16T16:36:15;8.30;;;3.27;;
15385;SDS011;7791;47.246;9.648;2022-10-16T16:38:41;7.37;;;2.73;;
15385;SDS011;7791;47.246;9.648;2022-10-16T16:41:12;23.90;;;5.80;;
15385;SDS011;7791;47.246;9.648;2022-10-16T16:43:41;14.77;;;4.57;;
15385;SDS011;7791;47.246;9.648;2022-10-16T16:46:08;9.23;;;2.40;;
15385;SDS011;7791;47.246;9.648;2022-10-16T16:48:36;8.73;;;2.20;;